KMCF

Macdill AFB Airport

Tampa, Florida, USA
METAR KMCF 231121Z AUTO 09003KT 10SM -DZ BKN060 19/17 A3009 RMK AO2 DZB21 SLP193 FZRANO $
Observed Flight Rules
Oct-23 @ 11:21 UTC (29 minutes ago) Visual Flight Rules
Wind Visibility Clouds Conditions
90° at 3 knots 10 miles
  • Broken at 6,000' AGL
  • Light Drizzle
Temperatures Readings
Current 19°C / 66°F
Dewpoint 17°C / 63°F
Humidity 88%
Altimeter 30.09" Hg
Pressure 1019.3 hPa
Elevation 4
METAR KMCF 231121Z AUTO 09003KT 10SM -DZ BKN060 19/17 A3009 RMK AO2 DZB21 SLP193 FZRANO $
Observed Flight Rules
Oct-23 @ 11:21 UTC
(29 minutes ago)
VFR
Wind Visibility
90° at 3 knots 10 miles
Clouds
  • Broken at 6,000' AGL
Conditions
  • Light Drizzle
Temperature Dewpoint
19°C / 66°F 17°C / 63°F
Humidity Altimeter Pressure
88% 30.09" Hg 1019.3 hPa